sensor_id;sensor_type;location;lat;lon;timestamp;P1;durP1;ratioP1;P2;durP2;ratioP2
20709;SDS011;10516;51.518;9.864;2023-01-23T00:00:26;35.00;;;17.48;;
20709;SDS011;10516;51.518;9.864;2023-01-23T00:02:52;38.08;;;19.98;;
20709;SDS011;10516;51.518;9.864;2023-01-23T00:05:17;38.15;;;19.10;;
20709;SDS011;10516;51.518;9.864;2023-01-23T00:07:43;35.67;;;20.13;;
20709;SDS011;10516;51.518;9.864;2023-01-23T00:10:08;34.75;;;18.30;;
20709;SDS011;10516;51.518;9.864;2023-01-23T00:12:34;38.55;;;19.98;;
20709;SDS011;10516;51.518;9.864;2023-01-23T00:15:00;34.20;;;17.90;;
20709;SDS011;10516;51.518;9.864;2023-01-23T00:17:25;37.72;;;19.20;;
20709;SDS011;10516;51.518;9.864;2023-01-23T00:19:54;46.10;;;22.17;;
20709;SDS011;10516;51.518;9.864;2023-01-23T00:22:19;44.92;;;21.15;;
20709;SDS011;10516;51.518;9.864;2023-01-23T00:24:45;42.08;;;21.17;;
20709;SDS011;10516;51.518;9.864;2023-01-23T00:27:11;39.55;;;20.60;;
20709;SDS011;10516;51.518;9.864;2023-01-23T00:29:36;40.42;;;21.40;;
20709;SDS011;10516;51.518;9.864;2023-01-23T00:32:02;43.38;;;21.83;;
20709;SDS011;10516;51.518;9.864;2023-01-23T00:34:27;48.30;;;22.35;;
20709;SDS011;10516;51.518;9.864;2023-01-23T00:36:54;48.65;;;22.73;;
20709;SDS011;10516;51.518;9.864;2023-01-23T00:39:20;49.15;;;23.65;;
20709;SDS011;10516;51.518;9.864;2023-01-23T00:41:46;45.92;;;22.30;;
20709;SDS011;10516;51.518;9.864;2023-01-23T00:44:12;48.85;;;21.92;;
20709;SDS011;10516;51.518;9.864;2023-01-23T00:46:38;54.20;;;22.52;;
20709;SDS011;10516;51.518;9.864;2023-01-23T00:49:04;47.88;;;22.10;;
20709;SDS011;10516;51.518;9.864;2023-01-23T00:51:29;49.25;;;22.33;;
20709;SDS011;10516;51.518;9.864;2023-01-23T00:53:55;48.33;;;21.33;;
20709;SDS011;10516;51.518;9.864;2023-01-23T00:56:20;49.50;;;20.83;;
20709;SDS011;10516;51.518;9.864;2023-01-23T00:58:45;45.85;;;21.88;;
20709;SDS011;10516;51.518;9.864;2023-01-23T01:01:11;47.55;;;23.40;;
20709;SDS011;10516;51.518;9.864;2023-01-23T01:03:37;42.30;;;20.95;;
20709;SDS011;10516;51.518;9.864;2023-01-23T01:06:03;40.00;;;19.30;;
20709;SDS011;10516;51.518;9.864;2023-01-23T01:08:29;47.40;;;22.88;;
20709;SDS011;10516;51.518;9.864;2023-01-23T01:10:54;50.22;;;22.67;;
20709;SDS011;10516;51.518;9.864;2023-01-23T01:13:19;45.53;;;20.00;;
20709;SDS011;10516;51.518;9.864;2023-01-23T01:15:49;51.47;;;22.38;;
20709;SDS011;10516;51.518;9.864;2023-01-23T01:18:16;50.90;;;21.92;;
20709;SDS011;10516;51.518;9.864;2023-01-23T01:20:43;44.20;;;22.08;;
20709;SDS011;10516;51.518;9.864;2023-01-23T01:23:09;51.10;;;23.88;;
20709;SDS011;10516;51.518;9.864;2023-01-23T01:25:35;46.47;;;21.92;;
20709;SDS011;10516;51.518;9.864;2023-01-23T01:28:01;55.45;;;23.13;;
20709;SDS011;10516;51.518;9.864;2023-01-23T01:30:26;56.03;;;23.90;;
20709;SDS011;10516;51.518;9.864;2023-01-23T01:32:52;49.10;;;23.77;;
20709;SDS011;10516;51.518;9.864;2023-01-23T01:35:18;52.22;;;23.55;;
20709;SDS011;10516;51.518;9.864;2023-01-23T01:37:44;52.83;;;23.98;;
20709;SDS011;10516;51.518;9.864;2023-01-23T01:40:12;51.35;;;23.80;;
20709;SDS011;10516;51.518;9.864;2023-01-23T01:42:44;52.70;;;22.50;;
20709;SDS011;10516;51.518;9.864;2023-01-23T01:48:16;56.58;;;27.27;;
20709;SDS011;10516;51.518;9.864;2023-01-23T01:50:45;56.22;;;24.73;;
20709;SDS011;10516;51.518;9.864;2023-01-23T01:53:11;61.40;;;25.73;;
20709;SDS011;10516;51.518;9.864;2023-01-23T01:55:37;57.03;;;26.52;;
20709;SDS011;10516;51.518;9.864;2023-01-23T01:58:03;58.33;;;26.13;;
20709;SDS011;10516;51.518;9.864;2023-01-23T02:00:29;56.70;;;25.67;;
20709;SDS011;10516;51.518;9.864;2023-01-23T02:02:58;68.43;;;30.42;;
20709;SDS011;10516;51.518;9.864;2023-01-23T02:05:27;61.35;;;24.50;;
20709;SDS011;10516;51.518;9.864;2023-01-23T02:10:38;68.05;;;26.67;;
20709;SDS011;10516;51.518;9.864;2023-01-23T02:15:56;61.55;;;25.27;;
20709;SDS011;10516;51.518;9.864;2023-01-23T02:18:23;60.88;;;27.02;;
20709;SDS011;10516;51.518;9.864;2023-01-23T02:20:50;59.47;;;27.08;;
20709;SDS011;10516;51.518;9.864;2023-01-23T02:23:25;69.95;;;28.63;;
20709;SDS011;10516;51.518;9.864;2023-01-23T02:26:04;69.93;;;29.85;;
20709;SDS011;10516;51.518;9.864;2023-01-23T02:28:37;48.55;;;22.08;;
20709;SDS011;10516;51.518;9.864;2023-01-23T02:31:02;74.30;;;27.50;;
20709;SDS011;10516;51.518;9.864;2023-01-23T02:35:54;68.55;;;27.55;;
20709;SDS011;10516;51.518;9.864;2023-01-23T02:38:19;71.22;;;28.92;;
20709;SDS011;10516;51.518;9.864;2023-01-23T02:40:48;68.05;;;28.20;;
20709;SDS011;10516;51.518;9.864;2023-01-23T02:43:15;61.22;;;29.10;;
20709;SDS011;10516;51.518;9.864;2023-01-23T02:45:45;72.97;;;29.70;;
20709;SDS011;10516;51.518;9.864;2023-01-23T02:48:11;68.30;;;28.85;;
20709;SDS011;10516;51.518;9.864;2023-01-23T02:50:37;71.85;;;29.98;;
20709;SDS011;10516;51.518;9.864;2023-01-23T02:53:04;76.03;;;29.15;;
20709;SDS011;10516;51.518;9.864;2023-01-23T02:55:30;73.53;;;31.70;;
20709;SDS011;10516;51.518;9.864;2023-01-23T02:57:57;81.47;;;30.23;;
20709;SDS011;10516;51.518;9.864;2023-01-23T03:00:43;83.18;;;29.83;;
20709;SDS011;10516;51.518;9.864;2023-01-23T03:03:09;78.30;;;31.90;;
20709;SDS011;10516;51.518;9.864;2023-01-23T03:05:35;74.78;;;30.15;;
20709;SDS011;10516;51.518;9.864;2023-01-23T03:08:00;79.82;;;31.02;;
20709;SDS011;10516;51.518;9.864;2023-01-23T03:10:26;70.78;;;30.30;;
20709;SDS011;10516;51.518;9.864;2023-01-23T03:12:51;75.10;;;30.83;;
20709;SDS011;10516;51.518;9.864;2023-01-23T03:15:16;79.60;;;30.60;;
20709;SDS011;10516;51.518;9.864;2023-01-23T03:17:42;79.72;;;29.83;;
20709;SDS011;10516;51.518;9.864;2023-01-23T03:20:07;79.68;;;30.60;;
20709;SDS011;10516;51.518;9.864;2023-01-23T03:22:34;80.30;;;32.25;;
20709;SDS011;10516;51.518;9.864;2023-01-23T03:24:59;71.85;;;30.88;;
20709;SDS011;10516;51.518;9.864;2023-01-23T03:27:25;83.32;;;32.55;;
20709;SDS011;10516;51.518;9.864;2023-01-23T03:29:51;78.32;;;31.33;;
20709;SDS011;10516;51.518;9.864;2023-01-23T03:32:35;82.53;;;31.75;;
20709;SDS011;10516;51.518;9.864;2023-01-23T03:35:02;82.50;;;31.23;;
20709;SDS011;10516;51.518;9.864;2023-01-23T03:37:28;77.22;;;29.27;;
20709;SDS011;10516;51.518;9.864;2023-01-23T03:39:54;74.20;;;29.95;;
20709;SDS011;10516;51.518;9.864;2023-01-23T03:42:38;77.15;;;31.15;;
20709;SDS011;10516;51.518;9.864;2023-01-23T03:45:04;69.10;;;29.75;;
20709;SDS011;10516;51.518;9.864;2023-01-23T03:47:30;78.88;;;32.25;;
20709;SDS011;10516;51.518;9.864;2023-01-23T03:49:55;77.63;;;29.20;;
20709;SDS011;10516;51.518;9.864;2023-01-23T03:52:21;68.93;;;27.50;;
20709;SDS011;10516;51.518;9.864;2023-01-23T03:54:46;75.35;;;30.95;;
20709;SDS011;10516;51.518;9.864;2023-01-23T03:57:11;61.60;;;27.38;;
20709;SDS011;10516;51.518;9.864;2023-01-23T03:59:37;67.32;;;26.40;;
20709;SDS011;10516;51.518;9.864;2023-01-23T04:02:02;67.45;;;29.05;;
20709;SDS011;10516;51.518;9.864;2023-01-23T04:04:31;74.32;;;29.45;;
20709;SDS011;10516;51.518;9.864;2023-01-23T04:06:58;57.80;;;25.00;;
20709;SDS011;10516;51.518;9.864;2023-01-23T04:09:24;73.10;;;30.30;;
20709;SDS011;10516;51.518;9.864;2023-01-23T04:11:52;58.03;;;25.88;;
20709;SDS011;10516;51.518;9.864;2023-01-23T04:14:21;63.35;;;26.52;;
20709;SDS011;10516;51.518;9.864;2023-01-23T04:16:47;63.90;;;27.48;;
20709;SDS011;10516;51.518;9.864;2023-01-23T04:19:12;57.45;;;25.40;;
20709;SDS011;10516;51.518;9.864;2023-01-23T04:21:38;56.55;;;24.38;;
20709;SDS011;10516;51.518;9.864;2023-01-23T04:24:04;60.60;;;25.67;;
20709;SDS011;10516;51.518;9.864;2023-01-23T04:26:29;64.75;;;26.60;;
20709;SDS011;10516;51.518;9.864;2023-01-23T04:28:55;53.35;;;24.45;;
20709;SDS011;10516;51.518;9.864;2023-01-23T04:31:20;65.38;;;28.13;;
20709;SDS011;10516;51.518;9.864;2023-01-23T04:33:45;73.30;;;29.60;;
20709;SDS011;10516;51.518;9.864;2023-01-23T04:36:11;70.75;;;26.40;;
20709;SDS011;10516;51.518;9.864;2023-01-23T04:38:37;63.35;;;27.27;;
20709;SDS011;10516;51.518;9.864;2023-01-23T04:41:02;65.80;;;28.13;;
20709;SDS011;10516;51.518;9.864;2023-01-23T04:43:28;63.85;;;27.95;;
20709;SDS011;10516;51.518;9.864;2023-01-23T04:45:54;69.72;;;27.00;;
20709;SDS011;10516;51.518;9.864;2023-01-23T04:48:20;59.25;;;26.35;;
20709;SDS011;10516;51.518;9.864;2023-01-23T04:50:47;60.88;;;26.27;;
20709;SDS011;10516;51.518;9.864;2023-01-23T04:53:13;66.90;;;26.23;;
20709;SDS011;10516;51.518;9.864;2023-01-23T04:55:39;71.85;;;28.90;;
20709;SDS011;10516;51.518;9.864;2023-01-23T04:58:05;59.42;;;25.42;;
20709;SDS011;10516;51.518;9.864;2023-01-23T05:00:31;62.92;;;26.75;;
20709;SDS011;10516;51.518;9.864;2023-01-23T05:02:56;66.55;;;26.42;;
20709;SDS011;10516;51.518;9.864;2023-01-23T05:05:22;64.00;;;27.77;;
20709;SDS011;10516;51.518;9.864;2023-01-23T05:07:48;59.03;;;25.15;;
20709;SDS011;10516;51.518;9.864;2023-01-23T05:10:15;59.42;;;26.08;;
20709;SDS011;10516;51.518;9.864;2023-01-23T05:12:41;61.63;;;26.17;;
20709;SDS011;10516;51.518;9.864;2023-01-23T05:15:07;57.88;;;25.05;;
20709;SDS011;10516;51.518;9.864;2023-01-23T05:17:33;59.08;;;25.10;;
20709;SDS011;10516;51.518;9.864;2023-01-23T05:19:58;58.20;;;26.20;;
20709;SDS011;10516;51.518;9.864;2023-01-23T05:22:24;53.00;;;22.88;;
20709;SDS011;10516;51.518;9.864;2023-01-23T05:24:49;55.90;;;24.83;;
20709;SDS011;10516;51.518;9.864;2023-01-23T05:27:15;65.63;;;26.10;;
20709;SDS011;10516;51.518;9.864;2023-01-23T05:29:40;55.90;;;22.67;;
20709;SDS011;10516;51.518;9.864;2023-01-23T05:32:05;56.90;;;24.38;;
20709;SDS011;10516;51.518;9.864;2023-01-23T05:34:31;48.03;;;24.15;;
20709;SDS011;10516;51.518;9.864;2023-01-23T05:36:56;53.78;;;24.52;;
20709;SDS011;10516;51.518;9.864;2023-01-23T05:39:22;44.33;;;21.85;;
20709;SDS011;10516;51.518;9.864;2023-01-23T05:41:47;45.75;;;21.48;;
20709;SDS011;10516;51.518;9.864;2023-01-23T05:44:13;43.17;;;21.38;;
20709;SDS011;10516;51.518;9.864;2023-01-23T05:46:38;36.78;;;19.48;;
20709;SDS011;10516;51.518;9.864;2023-01-23T05:49:04;44.67;;;21.23;;
20709;SDS011;10516;51.518;9.864;2023-01-23T05:51:29;35.90;;;18.85;;
20709;SDS011;10516;51.518;9.864;2023-01-23T05:54:01;36.05;;;19.55;;
20709;SDS011;10516;51.518;9.864;2023-01-23T05:56:27;35.10;;;17.23;;
20709;SDS011;10516;51.518;9.864;2023-01-23T05:58:53;36.45;;;18.13;;
20709;SDS011;10516;51.518;9.864;2023-01-23T06:01:19;44.20;;;20.08;;
20709;SDS011;10516;51.518;9.864;2023-01-23T06:03:45;49.95;;;23.48;;
20709;SDS011;10516;51.518;9.864;2023-01-23T06:06:11;46.65;;;21.40;;
20709;SDS011;10516;51.518;9.864;2023-01-23T06:08:36;49.13;;;23.67;;
20709;SDS011;10516;51.518;9.864;2023-01-23T06:11:02;42.55;;;20.63;;
20709;SDS011;10516;51.518;9.864;2023-01-23T06:13:27;38.65;;;20.30;;
20709;SDS011;10516;51.518;9.864;2023-01-23T06:15:53;42.35;;;20.92;;
20709;SDS011;10516;51.518;9.864;2023-01-23T06:18:19;36.00;;;18.17;;
20709;SDS011;10516;51.518;9.864;2023-01-23T06:20:45;44.05;;;21.25;;
20709;SDS011;10516;51.518;9.864;2023-01-23T06:23:11;44.63;;;21.33;;
20709;SDS011;10516;51.518;9.864;2023-01-23T06:25:36;42.88;;;20.90;;
20709;SDS011;10516;51.518;9.864;2023-01-23T06:28:02;43.85;;;22.17;;
20709;SDS011;10516;51.518;9.864;2023-01-23T06:30:28;45.13;;;20.58;;
20709;SDS011;10516;51.518;9.864;2023-01-23T06:32:53;43.20;;;22.10;;
20709;SDS011;10516;51.518;9.864;2023-01-23T06:35:19;47.83;;;24.83;;
20709;SDS011;10516;51.518;9.864;2023-01-23T06:37:44;42.22;;;18.77;;
20709;SDS011;10516;51.518;9.864;2023-01-23T06:40:10;40.60;;;19.40;;
20709;SDS011;10516;51.518;9.864;2023-01-23T06:42:37;45.42;;;22.20;;
20709;SDS011;10516;51.518;9.864;2023-01-23T06:45:03;40.03;;;18.45;;
20709;SDS011;10516;51.518;9.864;2023-01-23T06:47:29;43.78;;;20.10;;
20709;SDS011;10516;51.518;9.864;2023-01-23T06:49:55;45.72;;;22.13;;
20709;SDS011;10516;51.518;9.864;2023-01-23T06:52:21;45.78;;;20.75;;
20709;SDS011;10516;51.518;9.864;2023-01-23T06:54:46;50.92;;;21.15;;
20709;SDS011;10516;51.518;9.864;2023-01-23T06:57:12;40.40;;;20.05;;
20709;SDS011;10516;51.518;9.864;2023-01-23T06:59:37;49.00;;;20.42;;
20709;SDS011;10516;51.518;9.864;2023-01-23T07:02:02;50.58;;;21.05;;
20709;SDS011;10516;51.518;9.864;2023-01-23T07:04:28;51.05;;;20.88;;
20709;SDS011;10516;51.518;9.864;2023-01-23T07:06:53;47.50;;;21.55;;
20709;SDS011;10516;51.518;9.864;2023-01-23T07:09:19;48.33;;;22.45;;
20709;SDS011;10516;51.518;9.864;2023-01-23T07:11:44;46.17;;;21.35;;
20709;SDS011;10516;51.518;9.864;2023-01-23T07:14:10;49.40;;;24.00;;
20709;SDS011;10516;51.518;9.864;2023-01-23T07:16:35;43.83;;;21.25;;
20709;SDS011;10516;51.518;9.864;2023-01-23T07:19:00;45.17;;;20.13;;
20709;SDS011;10516;51.518;9.864;2023-01-23T07:21:28;41.97;;;20.73;;
20709;SDS011;10516;51.518;9.864;2023-01-23T07:23:53;47.78;;;23.90;;
20709;SDS011;10516;51.518;9.864;2023-01-23T07:26:18;50.40;;;24.10;;
20709;SDS011;10516;51.518;9.864;2023-01-23T07:28:44;51.35;;;23.10;;
20709;SDS011;10516;51.518;9.864;2023-01-23T07:31:09;48.08;;;22.67;;
20709;SDS011;10516;51.518;9.864;2023-01-23T07:33:35;47.92;;;23.20;;
20709;SDS011;10516;51.518;9.864;2023-01-23T07:36:03;45.28;;;24.95;;
20709;SDS011;10516;51.518;9.864;2023-01-23T07:38:29;56.10;;;29.73;;
20709;SDS011;10516;51.518;9.864;2023-01-23T07:40:56;54.38;;;24.05;;
20709;SDS011;10516;51.518;9.864;2023-01-23T07:43:22;46.05;;;20.73;;
20709;SDS011;10516;51.518;9.864;2023-01-23T07:45:47;49.17;;;21.33;;
20709;SDS011;10516;51.518;9.864;2023-01-23T07:48:14;49.83;;;21.67;;
20709;SDS011;10516;51.518;9.864;2023-01-23T07:50:39;37.92;;;18.83;;
20709;SDS011;10516;51.518;9.864;2023-01-23T07:53:05;51.45;;;26.63;;
20709;SDS011;10516;51.518;9.864;2023-01-23T07:55:30;47.13;;;22.15;;
20709;SDS011;10516;51.518;9.864;2023-01-23T07:57:55;51.45;;;21.25;;
20709;SDS011;10516;51.518;9.864;2023-01-23T08:00:21;45.45;;;23.20;;
20709;SDS011;10516;51.518;9.864;2023-01-23T08:02:47;50.03;;;22.65;;
20709;SDS011;10516;51.518;9.864;2023-01-23T08:05:12;55.13;;;22.85;;
20709;SDS011;10516;51.518;9.864;2023-01-23T08:07:38;48.30;;;22.42;;
20709;SDS011;10516;51.518;9.864;2023-01-23T08:10:03;53.28;;;21.83;;
20709;SDS011;10516;51.518;9.864;2023-01-23T08:12:29;58.33;;;23.13;;
20709;SDS011;10516;51.518;9.864;2023-01-23T08:14:55;49.53;;;22.63;;
20709;SDS011;10516;51.518;9.864;2023-01-23T08:17:20;51.50;;;22.95;;
20709;SDS011;10516;51.518;9.864;2023-01-23T08:19:45;48.83;;;22.02;;
20709;SDS011;10516;51.518;9.864;2023-01-23T08:22:11;52.67;;;21.38;;
20709;SDS011;10516;51.518;9.864;2023-01-23T08:24:36;53.45;;;23.08;;
20709;SDS011;10516;51.518;9.864;2023-01-23T08:27:01;50.28;;;23.45;;
20709;SDS011;10516;51.518;9.864;2023-01-23T08:29:27;60.03;;;23.10;;
20709;SDS011;10516;51.518;9.864;2023-01-23T08:31:52;54.75;;;22.40;;
20709;SDS011;10516;51.518;9.864;2023-01-23T08:34:19;55.13;;;22.30;;
20709;SDS011;10516;51.518;9.864;2023-01-23T08:36:45;55.50;;;24.20;;
20709;SDS011;10516;51.518;9.864;2023-01-23T08:39:11;60.75;;;25.60;;
20709;SDS011;10516;51.518;9.864;2023-01-23T08:41:36;50.58;;;22.98;;
20709;SDS011;10516;51.518;9.864;2023-01-23T08:44:01;56.63;;;24.17;;
20709;SDS011;10516;51.518;9.864;2023-01-23T08:46:28;59.90;;;24.98;;
20709;SDS011;10516;51.518;9.864;2023-01-23T08:48:53;52.67;;;23.63;;
20709;SDS011;10516;51.518;9.864;2023-01-23T08:51:19;59.20;;;24.55;;
20709;SDS011;10516;51.518;9.864;2023-01-23T08:53:45;55.63;;;24.25;;
20709;SDS011;10516;51.518;9.864;2023-01-23T08:56:14;52.45;;;25.63;;
20709;SDS011;10516;51.518;9.864;2023-01-23T08:58:43;63.55;;;25.27;;
20709;SDS011;10516;51.518;9.864;2023-01-23T09:01:10;55.22;;;24.17;;
20709;SDS011;10516;51.518;9.864;2023-01-23T09:03:37;64.50;;;25.70;;
20709;SDS011;10516;51.518;9.864;2023-01-23T09:06:03;56.17;;;24.42;;
20709;SDS011;10516;51.518;9.864;2023-01-23T09:08:28;59.75;;;26.00;;
20709;SDS011;10516;51.518;9.864;2023-01-23T09:10:58;61.70;;;25.88;;
20709;SDS011;10516;51.518;9.864;2023-01-23T09:13:27;56.03;;;25.38;;
20709;SDS011;10516;51.518;9.864;2023-01-23T09:15:52;57.28;;;25.05;;
20709;SDS011;10516;51.518;9.864;2023-01-23T09:18:18;68.00;;;26.42;;
20709;SDS011;10516;51.518;9.864;2023-01-23T09:20:43;56.45;;;24.70;;
20709;SDS011;10516;51.518;9.864;2023-01-23T09:23:09;62.58;;;27.85;;
20709;SDS011;10516;51.518;9.864;2023-01-23T09:25:34;56.10;;;26.02;;
20709;SDS011;10516;51.518;9.864;2023-01-23T09:28:02;62.15;;;27.98;;
20709;SDS011;10516;51.518;9.864;2023-01-23T09:30:27;59.45;;;27.02;;
20709;SDS011;10516;51.518;9.864;2023-01-23T09:32:53;55.63;;;26.30;;
20709;SDS011;10516;51.518;9.864;2023-01-23T09:35:18;60.65;;;27.77;;
20709;SDS011;10516;51.518;9.864;2023-01-23T09:37:43;53.92;;;25.80;;
20709;SDS011;10516;51.518;9.864;2023-01-23T09:40:24;65.28;;;28.33;;
20709;SDS011;10516;51.518;9.864;2023-01-23T09:42:53;60.85;;;27.17;;
20709;SDS011;10516;51.518;9.864;2023-01-23T09:45:23;64.63;;;28.20;;
20709;SDS011;10516;51.518;9.864;2023-01-23T09:50:39;55.75;;;26.67;;
20709;SDS011;10516;51.518;9.864;2023-01-23T09:53:16;53.80;;;23.80;;
20709;SDS011;10516;51.518;9.864;2023-01-23T09:56:03;57.97;;;25.33;;
20709;SDS011;10516;51.518;9.864;2023-01-23T09:58:55;53.58;;;26.55;;
20709;SDS011;10516;51.518;9.864;2023-01-23T10:01:25;58.60;;;29.13;;
20709;SDS011;10516;51.518;9.864;2023-01-23T10:03:53;62.67;;;28.73;;
20709;SDS011;10516;51.518;9.864;2023-01-23T10:06:23;64.35;;;25.85;;
20709;SDS011;10516;51.518;9.864;2023-01-23T10:17:51;54.67;;;27.00;;
20709;SDS011;10516;51.518;9.864;2023-01-23T10:25:35;64.55;;;26.83;;
20709;SDS011;10516;51.518;9.864;2023-01-23T10:30:58;66.05;;;28.58;;
20709;SDS011;10516;51.518;9.864;2023-01-23T10:33:38;58.63;;;27.17;;
20709;SDS011;10516;51.518;9.864;2023-01-23T10:36:10;52.55;;;24.35;;
20709;SDS011;10516;51.518;9.864;2023-01-23T10:38:59;52.65;;;25.77;;
20709;SDS011;10516;51.518;9.864;2023-01-23T10:41:30;57.53;;;25.80;;
20709;SDS011;10516;51.518;9.864;2023-01-23T10:43:57;69.30;;;32.55;;
20709;SDS011;10516;51.518;9.864;2023-01-23T10:46:32;55.60;;;26.30;;
20709;SDS011;10516;51.518;9.864;2023-01-23T10:49:02;62.42;;;25.70;;
20709;SDS011;10516;51.518;9.864;2023-01-23T10:56:27;59.90;;;26.02;;
20709;SDS011;10516;51.518;9.864;2023-01-23T10:58:55;48.95;;;24.85;;
20709;SDS011;10516;51.518;9.864;2023-01-23T11:01:26;64.32;;;28.48;;
20709;SDS011;10516;51.518;9.864;2023-01-23T11:03:54;53.58;;;24.52;;
20709;SDS011;10516;51.518;9.864;2023-01-23T11:06:20;55.90;;;26.50;;
20709;SDS011;10516;51.518;9.864;2023-01-23T11:08:57;59.03;;;25.50;;
20709;SDS011;10516;51.518;9.864;2023-01-23T11:11:25;50.90;;;23.92;;
20709;SDS011;10516;51.518;9.864;2023-01-23T11:14:06;59.90;;;25.52;;
20709;SDS011;10516;51.518;9.864;2023-01-23T11:16:36;57.65;;;26.50;;
20709;SDS011;10516;51.518;9.864;2023-01-23T11:24:20;49.92;;;23.50;;
20709;SDS011;10516;51.518;9.864;2023-01-23T11:32:11;44.55;;;22.95;;
20709;SDS011;10516;51.518;9.864;2023-01-23T11:34:39;47.88;;;23.13;;
20709;SDS011;10516;51.518;9.864;2023-01-23T11:39:37;55.40;;;25.83;;
20709;SDS011;10516;51.518;9.864;2023-01-23T11:42:11;59.67;;;26.02;;
20709;SDS011;10516;51.518;9.864;2023-01-23T11:44:39;55.25;;;28.40;;
20709;SDS011;10516;51.518;9.864;2023-01-23T11:50:34;57.53;;;24.48;;
20709;SDS011;10516;51.518;9.864;2023-01-23T11:53:04;56.15;;;26.15;;
20709;SDS011;10516;51.518;9.864;2023-01-23T12:09:40;56.97;;;27.13;;
20709;SDS011;10516;51.518;9.864;2023-01-23T12:18:14;50.13;;;23.85;;
20709;SDS011;10516;51.518;9.864;2023-01-23T12:21:18;46.05;;;22.75;;
20709;SDS011;10516;51.518;9.864;2023-01-23T12:26:34;48.03;;;21.70;;
20709;SDS011;10516;51.518;9.864;2023-01-23T12:29:26;49.40;;;22.95;;
20709;SDS011;10516;51.518;9.864;2023-01-23T12:45:25;50.25;;;24.13;;
20709;SDS011;10516;51.518;9.864;2023-01-23T12:53:09;59.83;;;30.48;;
20709;SDS011;10516;51.518;9.864;2023-01-23T12:58:23;55.67;;;25.33;;
20709;SDS011;10516;51.518;9.864;2023-01-23T13:00:54;53.00;;;25.05;;
20709;SDS011;10516;51.518;9.864;2023-01-23T13:09:23;54.17;;;25.60;;
20709;SDS011;10516;51.518;9.864;2023-01-23T13:16:57;52.80;;;23.30;;
20709;SDS011;10516;51.518;9.864;2023-01-23T13:19:25;49.47;;;23.65;;
20709;SDS011;10516;51.518;9.864;2023-01-23T13:27:40;50.35;;;23.25;;
20709;SDS011;10516;51.518;9.864;2023-01-23T13:32:57;61.83;;;26.73;;
20709;SDS011;10516;51.518;9.864;2023-01-23T13:41:31;57.08;;;24.77;;
20709;SDS011;10516;51.518;9.864;2023-01-23T13:52:10;55.60;;;23.95;;
20709;SDS011;10516;51.518;9.864;2023-01-23T13:54:57;59.08;;;24.63;;
20709;SDS011;10516;51.518;9.864;2023-01-23T13:57:45;55.75;;;25.95;;
20709;SDS011;10516;51.518;9.864;2023-01-23T14:00:11;54.13;;;25.55;;
20709;SDS011;10516;51.518;9.864;2023-01-23T14:03:10;53.85;;;24.67;;
20709;SDS011;10516;51.518;9.864;2023-01-23T14:06:13;55.35;;;24.40;;
20709;SDS011;10516;51.518;9.864;2023-01-23T14:08:49;55.28;;;24.80;;
20709;SDS011;10516;51.518;9.864;2023-01-23T14:11:18;48.75;;;21.20;;
20709;SDS011;10516;51.518;9.864;2023-01-23T14:13:45;59.03;;;26.15;;
20709;SDS011;10516;51.518;9.864;2023-01-23T14:16:15;54.42;;;24.38;;
20709;SDS011;10516;51.518;9.864;2023-01-23T14:18:48;54.00;;;26.27;;
20709;SDS011;10516;51.518;9.864;2023-01-23T14:21:20;53.70;;;23.48;;
20709;SDS011;10516;51.518;9.864;2023-01-23T14:23:52;63.08;;;26.67;;
20709;SDS011;10516;51.518;9.864;2023-01-23T14:26:23;58.83;;;25.15;;
20709;SDS011;10516;51.518;9.864;2023-01-23T14:31:33;57.35;;;23.85;;
20709;SDS011;10516;51.518;9.864;2023-01-23T14:34:01;53.15;;;23.85;;
20709;SDS011;10516;51.518;9.864;2023-01-23T14:36:29;54.65;;;24.77;;
20709;SDS011;10516;51.518;9.864;2023-01-23T14:39:00;49.10;;;24.70;;
20709;SDS011;10516;51.518;9.864;2023-01-23T14:41:30;46.38;;;21.88;;
20709;SDS011;10516;51.518;9.864;2023-01-23T14:44:03;56.78;;;25.88;;
20709;SDS011;10516;51.518;9.864;2023-01-23T14:46:35;58.13;;;25.38;;
20709;SDS011;10516;51.518;9.864;2023-01-23T14:49:04;64.18;;;27.88;;
20709;SDS011;10516;51.518;9.864;2023-01-23T14:51:31;59.88;;;24.73;;
20709;SDS011;10516;51.518;9.864;2023-01-23T14:53:58;55.28;;;24.27;;
20709;SDS011;10516;51.518;9.864;2023-01-23T14:56:27;58.63;;;27.25;;
20709;SDS011;10516;51.518;9.864;2023-01-23T14:58:59;63.05;;;26.02;;
20709;SDS011;10516;51.518;9.864;2023-01-23T15:01:32;68.25;;;29.98;;
20709;SDS011;10516;51.518;9.864;2023-01-23T15:04:02;86.63;;;36.40;;
20709;SDS011;10516;51.518;9.864;2023-01-23T15:06:30;65.35;;;29.55;;
20709;SDS011;10516;51.518;9.864;2023-01-23T15:09:06;61.97;;;25.38;;
20709;SDS011;10516;51.518;9.864;2023-01-23T15:11:40;65.63;;;26.77;;
20709;SDS011;10516;51.518;9.864;2023-01-23T15:14:06;69.15;;;29.08;;
20709;SDS011;10516;51.518;9.864;2023-01-23T15:16:49;58.08;;;25.73;;
20709;SDS011;10516;51.518;9.864;2023-01-23T15:19:19;69.32;;;27.25;;
20709;SDS011;10516;51.518;9.864;2023-01-23T15:21:48;70.32;;;28.67;;
20709;SDS011;10516;51.518;9.864;2023-01-23T15:26:43;60.40;;;28.05;;
20709;SDS011;10516;51.518;9.864;2023-01-23T15:29:23;67.35;;;31.73;;
20709;SDS011;10516;51.518;9.864;2023-01-23T15:31:51;58.53;;;26.13;;
20709;SDS011;10516;51.518;9.864;2023-01-23T15:34:26;67.80;;;29.52;;
20709;SDS011;10516;51.518;9.864;2023-01-23T15:39:22;53.35;;;24.00;;
20709;SDS011;10516;51.518;9.864;2023-01-23T15:44:38;59.08;;;25.20;;
20709;SDS011;10516;51.518;9.864;2023-01-23T15:47:04;56.88;;;24.85;;
20709;SDS011;10516;51.518;9.864;2023-01-23T15:49:31;58.42;;;25.73;;
20709;SDS011;10516;51.518;9.864;2023-01-23T15:51:58;65.78;;;27.92;;
20709;SDS011;10516;51.518;9.864;2023-01-23T15:54:33;66.10;;;27.48;;
20709;SDS011;10516;51.518;9.864;2023-01-23T15:57:00;59.40;;;24.35;;
20709;SDS011;10516;51.518;9.864;2023-01-23T15:59:27;52.33;;;24.05;;
20709;SDS011;10516;51.518;9.864;2023-01-23T16:01:57;60.78;;;26.13;;
20709;SDS011;10516;51.518;9.864;2023-01-23T16:04:22;71.53;;;27.50;;
20709;SDS011;10516;51.518;9.864;2023-01-23T16:06:48;60.33;;;25.77;;
20709;SDS011;10516;51.518;9.864;2023-01-23T16:09:16;57.72;;;26.05;;
20709;SDS011;10516;51.518;9.864;2023-01-23T16:11:48;61.30;;;24.85;;
20709;SDS011;10516;51.518;9.864;2023-01-23T16:14:15;61.67;;;25.65;;
20709;SDS011;10516;51.518;9.864;2023-01-23T16:16:42;62.15;;;26.05;;
20709;SDS011;10516;51.518;9.864;2023-01-23T16:19:08;64.60;;;28.20;;
20709;SDS011;10516;51.518;9.864;2023-01-23T16:21:34;68.53;;;26.45;;
20709;SDS011;10516;51.518;9.864;2023-01-23T16:24:00;67.80;;;26.88;;
20709;SDS011;10516;51.518;9.864;2023-01-23T16:26:26;61.22;;;24.25;;
20709;SDS011;10516;51.518;9.864;2023-01-23T16:28:52;66.25;;;28.45;;
20709;SDS011;10516;51.518;9.864;2023-01-23T16:31:19;70.68;;;28.85;;
20709;SDS011;10516;51.518;9.864;2023-01-23T16:33:45;59.45;;;26.50;;
20709;SDS011;10516;51.518;9.864;2023-01-23T16:36:14;68.85;;;27.83;;
20709;SDS011;10516;51.518;9.864;2023-01-23T16:38:51;67.85;;;28.65;;
20709;SDS011;10516;51.518;9.864;2023-01-23T16:41:19;61.08;;;26.23;;
20709;SDS011;10516;51.518;9.864;2023-01-23T16:43:45;67.28;;;26.00;;
20709;SDS011;10516;51.518;9.864;2023-01-23T16:46:10;74.88;;;27.77;;